Evening Mist — WBA7462 — position and weather

sailwx.info

Track history (hours):
 
Tides and Currents Weather Stations Pressure Air Temp Water Temp Dewpoint Dewpoint Depression Visibility Wind Speed Wind Dir Waves Ship Positions

Evening Mist

Owner: TUG EVENING MIST CORP, MELVILLE, NY. More information available from US FCC via Universal Licensing System and Coast Guard Vessel Documentation Center.

Last reported at 2017-Nov-20 00:30 UTC. Time now 2017-Nov-20 07:55 UTC.
Position N 40°39' W 074°07'.

Length 122 m; draft 15.5 m.

Type: Tow > 200 m length. MMSI: 367008230.

Date/timePositionNaut miles runAvg speedWind from/ knotsBaromVisibWave heightAir tempDewpointWater temp
2017-Nov-20 00:30N 40°39' W 074°07'0 0.1
2017-Nov-20 00:00N 40°39' W 074°07'4 7.8
2017-Nov-19 23:30N 40°38' W 074°12'4 8.7
2017-Nov-19 23:00N 40°33' W 074°13'1 1.1
2017-Nov-19 22:25N 40°33' W 074°14'1 1.8
2017-Nov-19 21:59N 40°33' W 074°13'4 7.2
2017-Nov-19 21:29N 40°37' W 074°12'3 6.4
2017-Nov-19 21:00N 40°39' W 074°09'2 3.1
2017-Nov-19 20:30N 40°39' W 074°07'0 0.8
2017-Nov-19 20:00N 40°39' W 074°06'2 4.6
2017-Nov-19 19:30N 40°38' W 074°04'1 1.4
2017-Nov-19 19:00N 40°37' W 074°03'0 0.0
2017-Nov-19 18:30N 40°37' W 074°03'0 0.2
2017-Nov-19 18:00N 40°37' W 074°04'2 3.9
2017-Nov-19 17:30N 40°39' W 074°05'4 7.9
2017-Nov-19 17:00N 40°39' W 074°10'3 5.2
2017-Nov-19 16:30N 40°37' W 074°12'2 3.1
2017-Nov-19 15:56N 40°35' W 074°13'0 0.0
2017-Nov-19 15:27N 40°35' W 074°13'0 0.0
2017-Nov-19 14:57N 40°35' W 074°13'2 0.3
2017-Nov-19 09:22N 40°33' W 074°13'2 1.3
2017-Nov-19 08:09N 40°33' W 074°15'0 0.0
2017-Nov-19 07:47N 40°33' W 074°15'3 0.6
2017-Nov-19 02:30N 40°35' W 074°12'0 0.0
2017-Nov-19 01:59N 40°35' W 074°12'0 0.0
2017-Nov-19 01:29N 40°35' W 074°12'0 0.0
2017-Nov-19 00:57N 40°35' W 074°12'0 0.0
2017-Nov-19 00:30N 40°35' W 074°12'0 0.0
2017-Nov-19 00:00N 40°35' W 074°12'0 0.0
2017-Nov-18 23:28N 40°35' W 074°12'0 0.0
2017-Nov-18 22:56N 40°35' W 074°12'0 0.1
2017-Nov-18 22:05N 40°35' W 074°12'0 0.4
2017-Nov-18 21:34N 40°35' W 074°13'0 0.2
2017-Nov-18 21:25N 40°35' W 074°13'1 2.7
2017-Nov-18 21:00N 40°36' W 074°12'3 6.8
2017-Nov-18 20:31N 40°39' W 074°09'1 2.6
2017-Nov-18 20:00N 40°39' W 074°07'0 0.0
2017-Nov-18 19:30N 40°39' W 074°07'0 0.0
2017-Nov-18 19:00N 40°39' W 074°07'0 0.0
2017-Nov-18 18:30N 40°39' W 074°07'4 7.5
2017-Nov-18 18:00N 40°40' W 074°02'3 6.8
2017-Nov-18 17:30N 40°39' W 074°07'4 7.3
2017-Nov-18 17:00N 40°38' W 074°12'5 7.4
2017-Nov-18 16:17N 40°33' W 074°14'1 2.1
2017-Nov-18 15:46N 40°33' W 074°15'1 3.0
2017-Nov-18 15:29N 40°33' W 074°14'3 5.4
2017-Nov-18 15:00N 40°35' W 074°12'0 0.7
2017-Nov-18 14:29N 40°35' W 074°13'1 1.9
2017-Nov-18 13:57N 40°36' W 074°12'2 4.4
2017-Nov-18 13:30N 40°38' W 074°12'3 6.7
2017-Nov-18 13:00N 40°39' W 074°08'4 7.5
2017-Nov-18 12:30N 40°39' W 074°03'0 0.7
2017-Nov-18 12:00N 40°39' W 074°02'0 0.0
2017-Nov-18 11:30N 40°39' W 074°02'0 0.0
2017-Nov-18 11:00N 40°39' W 074°02'0 0.0
2017-Nov-18 10:30N 40°39' W 074°02'0 0.0
2017-Nov-18 10:00N 40°39' W 074°02'0 0.0
2017-Nov-18 09:30N 40°39' W 074°02'0 0.1
2017-Nov-18 09:00N 40°39' W 074°02'0 0.1
2017-Nov-18 08:30N 40°39' W 074°02'0 0.0
2017-Nov-18 08:00N 40°39' W 074°02'0 0.0
2017-Nov-18 07:30N 40°39' W 074°02'0 0.0
2017-Nov-18 07:00N 40°39' W 074°02'0 0.0
2017-Nov-18 06:30N 40°39' W 074°02'0 0.0
2017-Nov-18 06:00N 40°39' W 074°02'0 0.0
2017-Nov-18 05:30N 40°39' W 074°02'0 0.0
2017-Nov-18 05:00N 40°39' W 074°02'0 0.0
2017-Nov-18 04:30N 40°39' W 074°02'0 0.0
2017-Nov-18 04:00N 40°39' W 074°02'0 0.0
2017-Nov-18 03:30N 40°39' W 074°02'0 0.1
2017-Nov-18 03:00N 40°39' W 074°02'0 0.0
2017-Nov-18 02:30N 40°39' W 074°02'0 0.0
2017-Nov-18 02:00N 40°39' W 074°02'0 0.0
2017-Nov-18 01:30N 40°39' W 074°02'0 0.0
2017-Nov-18 01:00N 40°39' W 074°02'2 3.4
2017-Nov-18 00:30N 40°41' W 074°02'1 1.9
2017-Nov-18 00:00N 40°42' W 074°01'2 5.0
2017-Nov-17 23:30N 40°43' W 073°58'3 5.6
2017-Nov-17 23:00N 40°46' W 073°57'3 4.3
2017-Nov-17 22:25N 40°47' W 073°55'2 4.2
2017-Nov-17 21:59N 40°48' W 073°53'3 6.7
2017-Nov-17 21:30N 40°48' W 073°48'5 6.7
2017-Nov-17 20:47N 40°52' W 073°45'2 7.1
2017-Nov-17 20:27N 40°53' W 073°42'5 0.2
2017-Nov-16 13:58N 40°49' W 073°47'3 5.5
2017-Nov-16 13:28N 40°48' W 073°50'4 6.8
2017-Nov-16 12:51N 40°47' W 073°55'3 8.2
2017-Nov-16 12:30N 40°45' W 073°58'4 7.6
2017-Nov-16 12:00N 40°41' W 074°00'4 7.8
2017-Nov-16 11:30N 40°39' W 074°05'2 3.2
2017-Nov-16 11:00N 40°39' W 074°07'0 0.0
2017-Nov-16 10:30N 40°39' W 074°07'1 1.0
2017-Nov-16 10:00N 40°39' W 074°07'0 0.1
2017-Nov-16 09:30N 40°39' W 074°07'0 0.0
2017-Nov-16 09:00N 40°39' W 074°07'0 0.0
2017-Nov-16 08:29N 40°39' W 074°07'0 0.0
2017-Nov-16 08:00N 40°39' W 074°07'0 0.0
2017-Nov-16 07:30N 40°39' W 074°07'0 0.0
2017-Nov-16 06:59N 40°39' W 074°07'0 0.0
2017-Nov-16 06:30N 40°39' W 074°07'0 0.0
2017-Nov-16 06:00N 40°39' W 074°07'0 0.0
2017-Nov-16 05:30N 40°39' W 074°07'0 0.0
2017-Nov-16 05:00N 40°39' W 074°07'0 0.0
2017-Nov-16 04:30N 40°39' W 074°07'0 0.0
2017-Nov-16 03:59N 40°39' W 074°07'0 0.0
2017-Nov-16 03:30N 40°39' W 074°07'0 0.0
2017-Nov-16 03:00N 40°39' W 074°07'0 0.0
2017-Nov-16 02:30N 40°39' W 074°07'0 0.0
2017-Nov-16 01:58N 40°39' W 074°07'0 0.0
2017-Nov-16 01:30N 40°39' W 074°07'0 0.0
2017-Nov-16 01:00N 40°39' W 074°07'0 0.0
2017-Nov-15 23:29N 40°39' W 074°07'1 1.1
2017-Nov-15 23:00N 40°39' W 074°07'0 0.0
2017-Nov-15 22:30N 40°39' W 074°07'2 4.0
2017-Nov-15 22:00N 40°39' W 074°04'1 2.4
2017-Nov-15 21:30N 40°40' W 074°03'0 0.2
2017-Nov-15 21:00N 40°40' W 074°03'0 0.1
2017-Nov-15 20:30N 40°40' W 074°03'0 0.0
2017-Nov-15 20:00N 40°40' W 074°03'0 0.2
2017-Nov-15 19:30N 40°40' W 074°03'3 5.3
2017-Nov-15 19:00N 40°41' W 074°00'0 0.4
2017-Nov-15 18:30N 40°42' W 074°00'1 1.6
2017-Nov-15 18:00N 40°41' W 074°01'3 6.8
2017-Nov-15 17:30N 40°38' W 074°03'2 3.4
2017-Nov-15 17:00N 40°36' W 074°02'1 1.8
2017-Nov-15 16:30N 40°36' W 074°01'0 0.0
2017-Nov-15 16:00N 40°36' W 074°01'0 0.0
2017-Nov-15 15:30N 40°36' W 074°01'0 0.1
2017-Nov-15 15:00N 40°36' W 074°01'0 0.0
2017-Nov-15 14:30N 40°36' W 074°01'0 0.0
2017-Nov-15 14:00N 40°36' W 074°01'0 0.0
2017-Nov-15 13:29N 40°36' W 074°01'0 0.0
2017-Nov-15 13:00N 40°36' W 074°01'0 0.0
2017-Nov-15 12:30N 40°36' W 074°01'0 0.0
2017-Nov-15 12:00N 40°36' W 074°01'0 0.0
2017-Nov-15 11:30N 40°36' W 074°01'0 0.0
2017-Nov-15 11:00N 40°36' W 074°01'0 0.0
2017-Nov-15 10:30N 40°36' W 074°01'0 0.0
2017-Nov-15 10:00N 40°36' W 074°01'0 0.0
2017-Nov-15 09:30N 40°36' W 074°01'0 0.1
2017-Nov-15 09:00N 40°36' W 074°01'0 0.1
2017-Nov-15 08:30N 40°36' W 074°01'0 0.0
2017-Nov-15 08:00N 40°36' W 074°01'0 0.1
2017-Nov-15 07:30N 40°36' W 074°01'0 0.0
2017-Nov-15 07:00N 40°36' W 074°01'0 0.0
2017-Nov-15 06:30N 40°36' W 074°01'0 0.1
2017-Nov-15 06:00N 40°36' W 074°01'0 0.0
2017-Nov-15 05:30N 40°36' W 074°01'0 0.0
2017-Nov-15 05:00N 40°36' W 074°01'0 0.0
2017-Nov-15 04:30N 40°36' W 074°01'0 0.0
2017-Nov-15 04:00N 40°36' W 074°01'0 0.0
2017-Nov-15 03:29N 40°36' W 074°01'0 0.0
2017-Nov-15 03:00N 40°36' W 074°01'0 0.0
2017-Nov-15 02:30N 40°36' W 074°01'0 0.0
2017-Nov-15 02:00N 40°36' W 074°01'0 0.0
2017-Nov-15 01:30N 40°36' W 074°01'0 0.0
2017-Nov-15 01:00N 40°36' W 074°01'2 4.4
2017-Nov-15 00:30N 40°37' W 074°03'3 5.1
2017-Nov-15 00:00N 40°40' W 074°02'0 0.1
2017-Nov-14 23:30N 40°40' W 074°02'0 0.0
2017-Nov-14 23:00N 40°40' W 074°02'0 0.0
2017-Nov-14 22:30N 40°40' W 074°02'0 0.1
2017-Nov-14 22:00N 40°40' W 074°02'0 0.1
2017-Nov-14 21:30N 40°40' W 074°02'0 0.0
2017-Nov-14 21:00N 40°40' W 074°02'0 0.0
2017-Nov-14 20:30N 40°40' W 074°02'0 0.0
2017-Nov-14 20:00N 40°40' W 074°02'0 0.0
2017-Nov-14 19:30N 40°40' W 074°02'0 0.0
2017-Nov-14 19:00N 40°40' W 074°02'0 0.0
2017-Nov-14 18:30N 40°40' W 074°02'0 0.0
2017-Nov-14 18:00N 40°40' W 074°02'0 0.0
2017-Nov-14 17:30N 40°40' W 074°02'0 0.0
2017-Nov-14 17:00N 40°40' W 074°02'0 0.0
2017-Nov-14 16:30N 40°40' W 074°02'0 0.0
2017-Nov-14 16:00N 40°40' W 074°02'0 0.0
2017-Nov-14 15:30N 40°40' W 074°02'0 0.0
2017-Nov-14 15:00N 40°40' W 074°02'0 0.0
2017-Nov-14 14:30N 40°40' W 074°02'0 0.0
2017-Nov-14 14:00N 40°40' W 074°02'4 7.3
2017-Nov-14 13:30N 40°39' W 074°07'4 8.6
2017-Nov-14 13:00N 40°38' W 074°12'4 8.2
2017-Nov-14 12:29N 40°33' W 074°13'1 1.3
2017-Nov-14 12:00N 40°33' W 074°14'0 0.0
2017-Nov-14 11:29N 40°33' W 074°14'0 0.0
2017-Nov-14 11:00N 40°33' W 074°14'0 0.0
2017-Nov-14 10:30N 40°33' W 074°14'0 0.2
2017-Nov-14 10:00N 40°33' W 074°14'0 0.0
2017-Nov-14 09:30N 40°33' W 074°14'0 0.0
2017-Nov-14 09:00N 40°34' W 074°14'0 0.0
2017-Nov-14 08:30N 40°33' W 074°14'0 0.0
2017-Nov-14 08:00N 40°33' W 074°14'0 0.0
2017-Nov-14 07:30N 40°33' W 074°14'0 0.0
2017-Nov-14 07:00N 40°33' W 074°14'0 0.9
2017-Nov-14 06:30N 40°33' W 074°15'3 6.1
2017-Nov-14 05:58N 40°36' W 074°12'4 7.6
2017-Nov-14 05:30N 40°39' W 074°10'2 4.4
2017-Nov-14 05:00N 40°39' W 074°07'0 0.0
2017-Nov-14 04:30N 40°39' W 074°07'0 0.0
2017-Nov-14 04:00N 40°39' W 074°07'0 0.0
2017-Nov-14 03:30N 40°39' W 074°07'0 0.0
2017-Nov-14 03:00N 40°39' W 074°07'0 0.0
2017-Nov-14 02:30N 40°39' W 074°07'0 0.0
2017-Nov-14 02:00N 40°39' W 074°07'0 0.0
2017-Nov-14 01:30N 40°39' W 074°07'0 0.0
2017-Nov-14 01:00N 40°39' W 074°07'0 0.0
2017-Nov-14 00:30N 40°39' W 074°07'0 0.0
2017-Nov-14 00:00N 40°39' W 074°07'0 0.0
2017-Nov-13 23:30N 40°39' W 074°07'0 0.0
2017-Nov-13 23:00N 40°39' W 074°07'0 0.0
2017-Nov-13 22:30N 40°39' W 074°07'1 2.0
2017-Nov-13 22:00N 40°38' W 074°08'5 0.3
2017-Nov-13 02:00N 40°40' W 074°02'0 0.0
2017-Nov-13 01:30N 40°40' W 074°02'0 0.0
2017-Nov-13 01:00N 40°40' W 074°02'0 0.0
2017-Nov-13 00:30N 40°40' W 074°02'0 0.0
2017-Nov-13 00:00N 40°40' W 074°02'0 0.0
2017-Nov-12 23:30N 40°40' W 074°02'0 0.0
2017-Nov-12 23:00N 40°40' W 074°02'0 0.1
2017-Nov-12 22:30N 40°40' W 074°02'0 0.0
2017-Nov-12 22:00N 40°40' W 074°02'0 0.0
2017-Nov-12 21:30N 40°40' W 074°02'0 0.0
2017-Nov-12 21:00N 40°40' W 074°02'0 0.0
2017-Nov-12 20:30N 40°40' W 074°02'0 0.0
2017-Nov-12 20:00N 40°40' W 074°02'0 0.0
2017-Nov-12 19:30N 40°40' W 074°02'0 0.0
2017-Nov-12 19:00N 40°40' W 074°02'0 0.0
2017-Nov-12 18:30N 40°40' W 074°02'0 0.1
2017-Nov-12 18:00N 40°40' W 074°02'0 0.0
2017-Nov-12 17:30N 40°40' W 074°02'0 0.0
2017-Nov-12 17:00N 40°40' W 074°02'0 0.0
2017-Nov-12 16:30N 40°40' W 074°02'0 0.0
2017-Nov-12 16:00N 40°40' W 074°02'0 0.0
2017-Nov-12 15:30N 40°40' W 074°02'0 0.0
2017-Nov-12 15:00N 40°40' W 074°02'0 0.0
2017-Nov-12 14:30N 40°40' W 074°02'0 0.0
2017-Nov-12 14:00N 40°40' W 074°02'0 0.0
2017-Nov-12 13:30N 40°40' W 074°02'0 0.0
2017-Nov-12 13:00N 40°40' W 074°02'0 0.0
2017-Nov-12 12:30N 40°40' W 074°02'0 0.0
2017-Nov-12 12:00N 40°40' W 074°02'0 0.0
2017-Nov-12 11:30N 40°40' W 074°02'0 0.0
2017-Nov-12 11:00N 40°40' W 074°02'0 0.0
2017-Nov-12 10:30N 40°40' W 074°02'0 0.1
2017-Nov-12 10:00N 40°40' W 074°02'0 0.0
2017-Nov-12 09:30N 40°40' W 074°02'0 0.0
2017-Nov-12 09:00N 40°40' W 074°02'0 0.1
2017-Nov-12 08:30N 40°40' W 074°02'0 0.0
2017-Nov-12 08:00N 40°40' W 074°02'0 0.0
2017-Nov-12 07:30N 40°40' W 074°02'0 0.0
2017-Nov-12 07:00N 40°40' W 074°02'0 0.0
2017-Nov-12 06:30N 40°40' W 074°02'0 0.0
2017-Nov-12 06:00N 40°40' W 074°02'0 0.1
2017-Nov-12 05:30N 40°40' W 074°02'0 0.0
2017-Nov-12 05:00N 40°40' W 074°02'0 0.1
2017-Nov-12 04:30N 40°40' W 074°02'0 0.0
2017-Nov-12 04:00N 40°40' W 074°02'0 0.0
2017-Nov-12 03:30N 40°40' W 074°02'0 0.0
2017-Nov-12 03:00N 40°40' W 074°02'0 0.0
2017-Nov-12 02:30N 40°40' W 074°02'0 0.0
2017-Nov-12 02:00N 40°40' W 074°02'0 0.0
2017-Nov-12 01:30N 40°40' W 074°02'0 0.0
2017-Nov-12 01:00N 40°40' W 074°02'0 0.0
2017-Nov-12 00:30N 40°40' W 074°02'0 0.0
2017-Nov-12 00:00N 40°40' W 074°02'0 0.0
2017-Nov-11 23:30N 40°40' W 074°02'0 0.0
2017-Nov-11 23:00N 40°40' W 074°02'0 0.0
2017-Nov-11 22:30N 40°40' W 074°02'0 0.0
2017-Nov-11 22:00N 40°40' W 074°02'0 0.0
2017-Nov-11 21:30N 40°40' W 074°02'0 0.0
2017-Nov-11 21:00N 40°40' W 074°02'0 0.0
2017-Nov-11 20:30N 40°40' W 074°02'0 0.1
2017-Nov-11 20:00N 40°40' W 074°02'0 0.1
2017-Nov-11 19:30N 40°40' W 074°02'0 0.1
2017-Nov-11 19:00N 40°40' W 074°02'0 0.1
2017-Nov-11 18:30N 40°40' W 074°02'0 0.0
2017-Nov-11 18:00N 40°40' W 074°02'0 0.1
2017-Nov-11 17:30N 40°40' W 074°02'0 0.0
2017-Nov-11 17:00N 40°40' W 074°02'0 0.1
2017-Nov-11 16:30N 40°40' W 074°02'0 0.0
2017-Nov-11 16:00N 40°40' W 074°02'0 0.0
2017-Nov-11 15:30N 40°40' W 074°02'0 0.0
2017-Nov-11 15:00N 40°40' W 074°02'0 0.0
2017-Nov-11 14:30N 40°40' W 074°02'0 0.0
2017-Nov-11 14:00N 40°40' W 074°02'0 0.0
2017-Nov-11 13:30N 40°40' W 074°02'0 0.0
2017-Nov-11 13:00N 40°40' W 074°02'0 0.0
2017-Nov-11 12:30N 40°40' W 074°02'0 0.0
2017-Nov-11 12:00N 40°40' W 074°02'0 0.0
2017-Nov-11 11:30N 40°40' W 074°02'0 0.0
2017-Nov-11 11:00N 40°40' W 074°02'0 0.0
2017-Nov-11 10:30N 40°40' W 074°02'0 0.0
2017-Nov-11 10:00N 40°40' W 074°02'0 0.0
2017-Nov-11 09:30N 40°40' W 074°02'0 0.0
2017-Nov-11 09:00N 40°40' W 074°02'0 0.1
2017-Nov-11 08:30N 40°40' W 074°02'0 0.0
2017-Nov-11 08:00N 40°40' W 074°02'0 0.1
2017-Nov-11 07:30N 40°40' W 074°02'2 3.6
2017-Nov-11 07:00N 40°39' W 074°04'1 2.3
2017-Nov-11 06:30N 40°39' W 074°05'0 0.2
2017-Nov-11 06:00N 40°39' W 074°05'1 2.2
2017-Nov-11 05:24N 40°39' W 074°07'0 0.0
2017-Nov-11 05:00N 40°39' W 074°07'0 0.0
2017-Nov-11 04:30N 40°39' W 074°07'0 0.0
2017-Nov-11 04:00N 40°39' W 074°07'0 0.0
2017-Nov-11 03:25N 40°39' W 074°07'0 0.0
2017-Nov-11 03:00N 40°39' W 074°07'0 0.0
2017-Nov-11 02:29N 40°39' W 074°07'0 0.8
2017-Nov-11 02:00N 40°39' W 074°08'4 7.4
2017-Nov-11 01:30N 40°37' W 074°12'2 3.1
2017-Nov-11 01:00N 40°36' W 074°12'0 0.0
2017-Nov-11 00:30N 40°36' W 074°12'0 0.0
2017-Nov-11 00:00N 40°36' W 074°12'0 0.0
2017-Nov-10 23:25N 40°36' W 074°12'1 1.0
2017-Nov-10 22:47N 40°35' W 074°13'0 0.1
2017-Nov-10 22:24N 40°35' W 074°13'1 1.5
2017-Nov-10 21:59N 40°36' W 074°12'0 0.0
2017-Nov-10 21:29N 40°36' W 074°12'0 0.0
2017-Nov-10 20:49N 40°36' W 074°12'0 0.0
2017-Nov-10 20:28N 40°36' W 074°12'0 0.0
2017-Nov-10 19:58N 40°36' W 074°12'0 0.0
2017-Nov-10 19:30N 40°36' W 074°12'1 2.9
2017-Nov-10 19:00N 40°37' W 074°12'3 6.4
2017-Nov-10 18:30N 40°39' W 074°08'2 4.7
2017-Nov-10 18:00N 40°39' W 074°05'0 0.2
2017-Nov-10 17:30N 40°39' W 074°05'1 2.5
2017-Nov-10 17:00N 40°39' W 074°04'2 3.6
2017-Nov-10 16:30N 40°37' W 074°03'1 1.0
2017-Nov-10 16:00N 40°37' W 074°04'0 0.5
2017-Nov-10 15:30N 40°37' W 074°03'2 4.6
2017-Nov-10 15:00N 40°39' W 074°06'2 4.7
2017-Nov-10 14:30N 40°39' W 074°09'3 5.3
2017-Nov-10 14:00N 40°37' W 074°12'2 3.4
2017-Nov-10 13:19N 40°35' W 074°13'0 0.0
2017-Nov-10 12:52N 40°35' W 074°13'1 1.8
2017-Nov-10 12:30N 40°36' W 074°12'0 0.0
2017-Nov-10 12:00N 40°36' W 074°12'0 0.0
2017-Nov-10 11:30N 40°36' W 074°12'0 0.0
2017-Nov-10 11:00N 40°36' W 074°12'0 0.0
2017-Nov-10 10:30N 40°36' W 074°12'0 0.0
2017-Nov-10 10:00N 40°36' W 074°12'0 0.0
2017-Nov-10 09:30N 40°36' W 074°12'0 0.0
2017-Nov-10 08:49N 40°36' W 074°12'0 0.0
2017-Nov-10 08:28N 40°36' W 074°12'0 0.0
2017-Nov-10 07:52N 40°36' W 074°12'2 5.1
2017-Nov-10 07:30N 40°38' W 074°12'3 6.9
2017-Nov-10 07:00N 40°39' W 074°08'1 0.2
2017-Nov-10 04:15N 40°39' W 074°07'0 0.0
2017-Nov-10 04:00N 40°39' W 074°07'0 0.0
2017-Nov-10 03:30N 40°39' W 074°07'0 0.0
2017-Nov-10 02:59N 40°39' W 074°07'0 0.0
2017-Nov-10 02:30N 40°39' W 074°07'0 0.0
2017-Nov-10 02:00N 40°39' W 074°07'0 0.6
2017-Nov-10 01:30N 40°39' W 074°07'4 7.7
2017-Nov-10 01:00N 40°37' W 074°12'2 4.4
2017-Nov-10 00:30N 40°35' W 074°13'  
Track history (hours):
 
Tides and Currents Weather Stations Pressure Air Temp Water Temp Dewpoint Dewpoint Depression Visibility Wind Speed Wind Dir Waves Ship Positions

Evening Mist

Owner: TUG EVENING MIST CORP, MELVILLE, NY. More information available from US FCC via Universal Licensing System and Coast Guard Vessel Documentation Center.

Last reported at 2017-Nov-20 00:30 UTC. Time now 2017-Nov-20 07:55 UTC.
Position N 40°39' W 074°07'.

Length 122 m; draft 15.5 m.

Type: Tow > 200 m length. MMSI: 367008230.

Date/timePositionNaut miles runAvg speedWind from/ knotsBaromVisibWave heightAir tempDewpointWater temp
2017-Nov-20 00:30N 40°39' W 074°07'0 0.1
2017-Nov-20 00:00N 40°39' W 074°07'4 7.8
2017-Nov-19 23:30N 40°38' W 074°12'4 8.7
2017-Nov-19 23:00N 40°33' W 074°13'1 1.1
2017-Nov-19 22:25N 40°33' W 074°14'1 1.8
2017-Nov-19 21:59N 40°33' W 074°13'4 7.2
2017-Nov-19 21:29N 40°37' W 074°12'3 6.4
2017-Nov-19 21:00N 40°39' W 074°09'2 3.1
2017-Nov-19 20:30N 40°39' W 074°07'0 0.8
2017-Nov-19 20:00N 40°39' W 074°06'2 4.6
2017-Nov-19 19:30N 40°38' W 074°04'1 1.4
2017-Nov-19 19:00N 40°37' W 074°03'0 0.0
2017-Nov-19 18:30N 40°37' W 074°03'0 0.2
2017-Nov-19 18:00N 40°37' W 074°04'2 3.9
2017-Nov-19 17:30N 40°39' W 074°05'4 7.9
2017-Nov-19 17:00N 40°39' W 074°10'3 5.2
2017-Nov-19 16:30N 40°37' W 074°12'2 3.1
2017-Nov-19 15:56N 40°35' W 074°13'0 0.0
2017-Nov-19 15:27N 40°35' W 074°13'0 0.0
2017-Nov-19 14:57N 40°35' W 074°13'2 0.3
2017-Nov-19 09:22N 40°33' W 074°13'2 1.3
2017-Nov-19 08:09N 40°33' W 074°15'0 0.0
2017-Nov-19 07:47N 40°33' W 074°15'3 0.6
2017-Nov-19 02:30N 40°35' W 074°12'0 0.0
2017-Nov-19 01:59N 40°35' W 074°12'0 0.0
2017-Nov-19 01:29N 40°35' W 074°12'0 0.0
2017-Nov-19 00:57N 40°35' W 074°12'0 0.0
2017-Nov-19 00:30N 40°35' W 074°12'0 0.0
2017-Nov-19 00:00N 40°35' W 074°12'0 0.0
2017-Nov-18 23:28N 40°35' W 074°12'0 0.0
2017-Nov-18 22:56N 40°35' W 074°12'0 0.1
2017-Nov-18 22:05N 40°35' W 074°12'0 0.4
2017-Nov-18 21:34N 40°35' W 074°13'0 0.2
2017-Nov-18 21:25N 40°35' W 074°13'1 2.7
2017-Nov-18 21:00N 40°36' W 074°12'3 6.8
2017-Nov-18 20:31N 40°39' W 074°09'1 2.6
2017-Nov-18 20:00N 40°39' W 074°07'0 0.0
2017-Nov-18 19:30N 40°39' W 074°07'0 0.0
2017-Nov-18 19:00N 40°39' W 074°07'0 0.0
2017-Nov-18 18:30N 40°39' W 074°07'4 7.5
2017-Nov-18 18:00N 40°40' W 074°02'3 6.8
2017-Nov-18 17:30N 40°39' W 074°07'4 7.3
2017-Nov-18 17:00N 40°38' W 074°12'5 7.4
2017-Nov-18 16:17N 40°33' W 074°14'1 2.1
2017-Nov-18 15:46N 40°33' W 074°15'1 3.0
2017-Nov-18 15:29N 40°33' W 074°14'3 5.4
2017-Nov-18 15:00N 40°35' W 074°12'0 0.7
2017-Nov-18 14:29N 40°35' W 074°13'1 1.9
2017-Nov-18 13:57N 40°36' W 074°12'2 4.4
2017-Nov-18 13:30N 40°38' W 074°12'3 6.7
2017-Nov-18 13:00N 40°39' W 074°08'4 7.5
2017-Nov-18 12:30N 40°39' W 074°03'0 0.7
2017-Nov-18 12:00N 40°39' W 074°02'0 0.0
2017-Nov-18 11:30N 40°39' W 074°02'0 0.0
2017-Nov-18 11:00N 40°39' W 074°02'0 0.0
2017-Nov-18 10:30N 40°39' W 074°02'0 0.0
2017-Nov-18 10:00N 40°39' W 074°02'0 0.0
2017-Nov-18 09:30N 40°39' W 074°02'0 0.1
2017-Nov-18 09:00N 40°39' W 074°02'0 0.1
2017-Nov-18 08:30N 40°39' W 074°02'0 0.0
2017-Nov-18 08:00N 40°39' W 074°02'0 0.0
2017-Nov-18 07:30N 40°39' W 074°02'0 0.0
2017-Nov-18 07:00N 40°39' W 074°02'0 0.0
2017-Nov-18 06:30N 40°39' W 074°02'0 0.0
2017-Nov-18 06:00N 40°39' W 074°02'0 0.0
2017-Nov-18 05:30N 40°39' W 074°02'0 0.0
2017-Nov-18 05:00N 40°39' W 074°02'0 0.0
2017-Nov-18 04:30N 40°39' W 074°02'0 0.0
2017-Nov-18 04:00N 40°39' W 074°02'0 0.0
2017-Nov-18 03:30N 40°39' W 074°02'0 0.1
2017-Nov-18 03:00N 40°39' W 074°02'0 0.0
2017-Nov-18 02:30N 40°39' W 074°02'0 0.0
2017-Nov-18 02:00N 40°39' W 074°02'0 0.0
2017-Nov-18 01:30N 40°39' W 074°02'0 0.0
2017-Nov-18 01:00N 40°39' W 074°02'2 3.4
2017-Nov-18 00:30N 40°41' W 074°02'1 1.9
2017-Nov-18 00:00N 40°42' W 074°01'2 5.0
2017-Nov-17 23:30N 40°43' W 073°58'3 5.6
2017-Nov-17 23:00N 40°46' W 073°57'3 4.3
2017-Nov-17 22:25N 40°47' W 073°55'2 4.2
2017-Nov-17 21:59N 40°48' W 073°53'3 6.7
2017-Nov-17 21:30N 40°48' W 073°48'5 6.7
2017-Nov-17 20:47N 40°52' W 073°45'2 7.1
2017-Nov-17 20:27N 40°53' W 073°42'5 0.2
2017-Nov-16 13:58N 40°49' W 073°47'3 5.5
2017-Nov-16 13:28N 40°48' W 073°50'4 6.8
2017-Nov-16 12:51N 40°47' W 073°55'3 8.2
2017-Nov-16 12:30N 40°45' W 073°58'4 7.6
2017-Nov-16 12:00N 40°41' W 074°00'4 7.8
2017-Nov-16 11:30N 40°39' W 074°05'2 3.2
2017-Nov-16 11:00N 40°39' W 074°07'0 0.0
2017-Nov-16 10:30N 40°39' W 074°07'1 1.0
2017-Nov-16 10:00N 40°39' W 074°07'0 0.1
2017-Nov-16 09:30N 40°39' W 074°07'0 0.0
2017-Nov-16 09:00N 40°39' W 074°07'0 0.0
2017-Nov-16 08:29N 40°39' W 074°07'0 0.0
2017-Nov-16 08:00N 40°39' W 074°07'0 0.0
2017-Nov-16 07:30N 40°39' W 074°07'0 0.0
2017-Nov-16 06:59N 40°39' W 074°07'0 0.0
2017-Nov-16 06:30N 40°39' W 074°07'0 0.0
2017-Nov-16 06:00N 40°39' W 074°07'0 0.0
2017-Nov-16 05:30N 40°39' W 074°07'0 0.0
2017-Nov-16 05:00N 40°39' W 074°07'0 0.0
2017-Nov-16 04:30N 40°39' W 074°07'0 0.0
2017-Nov-16 03:59N 40°39' W 074°07'0 0.0
2017-Nov-16 03:30N 40°39' W 074°07'0 0.0
2017-Nov-16 03:00N 40°39' W 074°07'0 0.0
2017-Nov-16 02:30N 40°39' W 074°07'0 0.0
2017-Nov-16 01:58N 40°39' W 074°07'0 0.0
2017-Nov-16 01:30N 40°39' W 074°07'0 0.0
2017-Nov-16 01:00N 40°39' W 074°07'0 0.0
2017-Nov-15 23:29N 40°39' W 074°07'1 1.1
2017-Nov-15 23:00N 40°39' W 074°07'0 0.0
2017-Nov-15 22:30N 40°39' W 074°07'2 4.0
2017-Nov-15 22:00N 40°39' W 074°04'1 2.4
2017-Nov-15 21:30N 40°40' W 074°03'0 0.2
2017-Nov-15 21:00N 40°40' W 074°03'0 0.1
2017-Nov-15 20:30N 40°40' W 074°03'0 0.0
2017-Nov-15 20:00N 40°40' W 074°03'0 0.2
2017-Nov-15 19:30N 40°40' W 074°03'3 5.3
2017-Nov-15 19:00N 40°41' W 074°00'0 0.4
2017-Nov-15 18:30N 40°42' W 074°00'1 1.6
2017-Nov-15 18:00N 40°41' W 074°01'3 6.8
2017-Nov-15 17:30N 40°38' W 074°03'2 3.4
2017-Nov-15 17:00N 40°36' W 074°02'1 1.8
2017-Nov-15 16:30N 40°36' W 074°01'0 0.0
2017-Nov-15 16:00N 40°36' W 074°01'0 0.0
2017-Nov-15 15:30N 40°36' W 074°01'0 0.1
2017-Nov-15 15:00N 40°36' W 074°01'0 0.0
2017-Nov-15 14:30N 40°36' W 074°01'0 0.0
2017-Nov-15 14:00N 40°36' W 074°01'0 0.0
2017-Nov-15 13:29N 40°36' W 074°01'0 0.0
2017-Nov-15 13:00N 40°36' W 074°01'0 0.0
2017-Nov-15 12:30N 40°36' W 074°01'0 0.0
2017-Nov-15 12:00N 40°36' W 074°01'0 0.0
2017-Nov-15 11:30N 40°36' W 074°01'0 0.0
2017-Nov-15 11:00N 40°36' W 074°01'0 0.0
2017-Nov-15 10:30N 40°36' W 074°01'0 0.0
2017-Nov-15 10:00N 40°36' W 074°01'0 0.0
2017-Nov-15 09:30N 40°36' W 074°01'0 0.1
2017-Nov-15 09:00N 40°36' W 074°01'0 0.1
2017-Nov-15 08:30N 40°36' W 074°01'0 0.0
2017-Nov-15 08:00N 40°36' W 074°01'0 0.1
2017-Nov-15 07:30N 40°36' W 074°01'0 0.0
2017-Nov-15 07:00N 40°36' W 074°01'0 0.0
2017-Nov-15 06:30N 40°36' W 074°01'0 0.1
2017-Nov-15 06:00N 40°36' W 074°01'0 0.0
2017-Nov-15 05:30N 40°36' W 074°01'0 0.0
2017-Nov-15 05:00N 40°36' W 074°01'0 0.0
2017-Nov-15 04:30N 40°36' W 074°01'0 0.0
2017-Nov-15 04:00N 40°36' W 074°01'0 0.0
2017-Nov-15 03:29N 40°36' W 074°01'0 0.0
2017-Nov-15 03:00N 40°36' W 074°01'0 0.0
2017-Nov-15 02:30N 40°36' W 074°01'0 0.0
2017-Nov-15 02:00N 40°36' W 074°01'0 0.0
2017-Nov-15 01:30N 40°36' W 074°01'0 0.0
2017-Nov-15 01:00N 40°36' W 074°01'2 4.4
2017-Nov-15 00:30N 40°37' W 074°03'3 5.1
2017-Nov-15 00:00N 40°40' W 074°02'0 0.1
2017-Nov-14 23:30N 40°40' W 074°02'0 0.0
2017-Nov-14 23:00N 40°40' W 074°02'0 0.0
2017-Nov-14 22:30N 40°40' W 074°02'0 0.1
2017-Nov-14 22:00N 40°40' W 074°02'0 0.1
2017-Nov-14 21:30N 40°40' W 074°02'0 0.0
2017-Nov-14 21:00N 40°40' W 074°02'0 0.0
2017-Nov-14 20:30N 40°40' W 074°02'0 0.0
2017-Nov-14 20:00N 40°40' W 074°02'0 0.0
2017-Nov-14 19:30N 40°40' W 074°02'0 0.0
2017-Nov-14 19:00N 40°40' W 074°02'0 0.0
2017-Nov-14 18:30N 40°40' W 074°02'0 0.0
2017-Nov-14 18:00N 40°40' W 074°02'0 0.0
2017-Nov-14 17:30N 40°40' W 074°02'0 0.0
2017-Nov-14 17:00N 40°40' W 074°02'0 0.0
2017-Nov-14 16:30N 40°40' W 074°02'0 0.0
2017-Nov-14 16:00N 40°40' W 074°02'0 0.0
2017-Nov-14 15:30N 40°40' W 074°02'0 0.0
2017-Nov-14 15:00N 40°40' W 074°02'0 0.0
2017-Nov-14 14:30N 40°40' W 074°02'0 0.0
2017-Nov-14 14:00N 40°40' W 074°02'4 7.3
2017-Nov-14 13:30N 40°39' W 074°07'4 8.6
2017-Nov-14 13:00N 40°38' W 074°12'4 8.2
2017-Nov-14 12:29N 40°33' W 074°13'1 1.3
2017-Nov-14 12:00N 40°33' W 074°14'0 0.0
2017-Nov-14 11:29N 40°33' W 074°14'0 0.0
2017-Nov-14 11:00N 40°33' W 074°14'0 0.0
2017-Nov-14 10:30N 40°33' W 074°14'0 0.2
2017-Nov-14 10:00N 40°33' W 074°14'0 0.0
2017-Nov-14 09:30N 40°33' W 074°14'0 0.0
2017-Nov-14 09:00N 40°34' W 074°14'0 0.0
2017-Nov-14 08:30N 40°33' W 074°14'0 0.0
2017-Nov-14 08:00N 40°33' W 074°14'0 0.0
2017-Nov-14 07:30N 40°33' W 074°14'0 0.0
2017-Nov-14 07:00N 40°33' W 074°14'0 0.9
2017-Nov-14 06:30N 40°33' W 074°15'3 6.1
2017-Nov-14 05:58N 40°36' W 074°12'4 7.6
2017-Nov-14 05:30N 40°39' W 074°10'2 4.4
2017-Nov-14 05:00N 40°39' W 074°07'0 0.0
2017-Nov-14 04:30N 40°39' W 074°07'0 0.0
2017-Nov-14 04:00N 40°39' W 074°07'0 0.0
2017-Nov-14 03:30N 40°39' W 074°07'0 0.0
2017-Nov-14 03:00N 40°39' W 074°07'0 0.0
2017-Nov-14 02:30N 40°39' W 074°07'0 0.0
2017-Nov-14 02:00N 40°39' W 074°07'0 0.0
2017-Nov-14 01:30N 40°39' W 074°07'0 0.0
2017-Nov-14 01:00N 40°39' W 074°07'0 0.0
2017-Nov-14 00:30N 40°39' W 074°07'0 0.0
2017-Nov-14 00:00N 40°39' W 074°07'0 0.0
2017-Nov-13 23:30N 40°39' W 074°07'0 0.0
2017-Nov-13 23:00N 40°39' W 074°07'0 0.0
2017-Nov-13 22:30N 40°39' W 074°07'1 2.0
2017-Nov-13 22:00N 40°38' W 074°08'5 0.3
2017-Nov-13 02:00N 40°40' W 074°02'0 0.0
2017-Nov-13 01:30N 40°40' W 074°02'0 0.0
2017-Nov-13 01:00N 40°40' W 074°02'0 0.0
2017-Nov-13 00:30N 40°40' W 074°02'0 0.0
2017-Nov-13 00:00N 40°40' W 074°02'0 0.0
2017-Nov-12 23:30N 40°40' W 074°02'0 0.0
2017-Nov-12 23:00N 40°40' W 074°02'0 0.1
2017-Nov-12 22:30N 40°40' W 074°02'0 0.0
2017-Nov-12 22:00N 40°40' W 074°02'0 0.0
2017-Nov-12 21:30N 40°40' W 074°02'0 0.0
2017-Nov-12 21:00N 40°40' W 074°02'0 0.0
2017-Nov-12 20:30N 40°40' W 074°02'0 0.0
2017-Nov-12 20:00N 40°40' W 074°02'0 0.0
2017-Nov-12 19:30N 40°40' W 074°02'0 0.0
2017-Nov-12 19:00N 40°40' W 074°02'0 0.0
2017-Nov-12 18:30N 40°40' W 074°02'0 0.1
2017-Nov-12 18:00N 40°40' W 074°02'0 0.0
2017-Nov-12 17:30N 40°40' W 074°02'0 0.0
2017-Nov-12 17:00N 40°40' W 074°02'0 0.0
2017-Nov-12 16:30N 40°40' W 074°02'0 0.0
2017-Nov-12 16:00N 40°40' W 074°02'0 0.0
2017-Nov-12 15:30N 40°40' W 074°02'0 0.0
2017-Nov-12 15:00N 40°40' W 074°02'0 0.0
2017-Nov-12 14:30N 40°40' W 074°02'0 0.0
2017-Nov-12 14:00N 40°40' W 074°02'0 0.0
2017-Nov-12 13:30N 40°40' W 074°02'0 0.0
2017-Nov-12 13:00N 40°40' W 074°02'0 0.0
2017-Nov-12 12:30N 40°40' W 074°02'0 0.0
2017-Nov-12 12:00N 40°40' W 074°02'0 0.0
2017-Nov-12 11:30N 40°40' W 074°02'0 0.0
2017-Nov-12 11:00N 40°40' W 074°02'0 0.0
2017-Nov-12 10:30N 40°40' W 074°02'0 0.1
2017-Nov-12 10:00N 40°40' W 074°02'0 0.0
2017-Nov-12 09:30N 40°40' W 074°02'0 0.0
2017-Nov-12 09:00N 40°40' W 074°02'0 0.1
2017-Nov-12 08:30N 40°40' W 074°02'0 0.0
2017-Nov-12 08:00N 40°40' W 074°02'0 0.0
2017-Nov-12 07:30N 40°40' W 074°02'0 0.0
2017-Nov-12 07:00N 40°40' W 074°02'0 0.0
2017-Nov-12 06:30N 40°40' W 074°02'0 0.0
2017-Nov-12 06:00N 40°40' W 074°02'0 0.1
2017-Nov-12 05:30N 40°40' W 074°02'0 0.0
2017-Nov-12 05:00N 40°40' W 074°02'0 0.1
2017-Nov-12 04:30N 40°40' W 074°02'0 0.0
2017-Nov-12 04:00N 40°40' W 074°02'0 0.0
2017-Nov-12 03:30N 40°40' W 074°02'0 0.0
2017-Nov-12 03:00N 40°40' W 074°02'0 0.0
2017-Nov-12 02:30N 40°40' W 074°02'0 0.0
2017-Nov-12 02:00N 40°40' W 074°02'0 0.0
2017-Nov-12 01:30N 40°40' W 074°02'0 0.0
2017-Nov-12 01:00N 40°40' W 074°02'0 0.0
2017-Nov-12 00:30N 40°40' W 074°02'0 0.0
2017-Nov-12 00:00N 40°40' W 074°02'0 0.0
2017-Nov-11 23:30N 40°40' W 074°02'0 0.0
2017-Nov-11 23:00N 40°40' W 074°02'0 0.0
2017-Nov-11 22:30N 40°40' W 074°02'0 0.0
2017-Nov-11 22:00N 40°40' W 074°02'0 0.0
2017-Nov-11 21:30N 40°40' W 074°02'0 0.0
2017-Nov-11 21:00N 40°40' W 074°02'0 0.0
2017-Nov-11 20:30N 40°40' W 074°02'0 0.1
2017-Nov-11 20:00N 40°40' W 074°02'0 0.1
2017-Nov-11 19:30N 40°40' W 074°02'0 0.1
2017-Nov-11 19:00N 40°40' W 074°02'0 0.1
2017-Nov-11 18:30N 40°40' W 074°02'0 0.0
2017-Nov-11 18:00N 40°40' W 074°02'0 0.1
2017-Nov-11 17:30N 40°40' W 074°02'0 0.0
2017-Nov-11 17:00N 40°40' W 074°02'0 0.1
2017-Nov-11 16:30N 40°40' W 074°02'0 0.0
2017-Nov-11 16:00N 40°40' W 074°02'0 0.0
2017-Nov-11 15:30N 40°40' W 074°02'0 0.0
2017-Nov-11 15:00N 40°40' W 074°02'0 0.0
2017-Nov-11 14:30N 40°40' W 074°02'0 0.0
2017-Nov-11 14:00N 40°40' W 074°02'0 0.0
2017-Nov-11 13:30N 40°40' W 074°02'0 0.0
2017-Nov-11 13:00N 40°40' W 074°02'0 0.0
2017-Nov-11 12:30N 40°40' W 074°02'0 0.0
2017-Nov-11 12:00N 40°40' W 074°02'0 0.0
2017-Nov-11 11:30N 40°40' W 074°02'0 0.0
2017-Nov-11 11:00N 40°40' W 074°02'0 0.0
2017-Nov-11 10:30N 40°40' W 074°02'0 0.0
2017-Nov-11 10:00N 40°40' W 074°02'0 0.0
2017-Nov-11 09:30N 40°40' W 074°02'0 0.0
2017-Nov-11 09:00N 40°40' W 074°02'0 0.1
2017-Nov-11 08:30N 40°40' W 074°02'0 0.0
2017-Nov-11 08:00N 40°40' W 074°02'0 0.1
2017-Nov-11 07:30N 40°40' W 074°02'2 3.6
2017-Nov-11 07:00N 40°39' W 074°04'1 2.3
2017-Nov-11 06:30N 40°39' W 074°05'0 0.2
2017-Nov-11 06:00N 40°39' W 074°05'1 2.2
2017-Nov-11 05:24N 40°39' W 074°07'0 0.0
2017-Nov-11 05:00N 40°39' W 074°07'0 0.0
2017-Nov-11 04:30N 40°39' W 074°07'0 0.0
2017-Nov-11 04:00N 40°39' W 074°07'0 0.0
2017-Nov-11 03:25N 40°39' W 074°07'0 0.0
2017-Nov-11 03:00N 40°39' W 074°07'0 0.0
2017-Nov-11 02:29N 40°39' W 074°07'0 0.8
2017-Nov-11 02:00N 40°39' W 074°08'4 7.4
2017-Nov-11 01:30N 40°37' W 074°12'2 3.1
2017-Nov-11 01:00N 40°36' W 074°12'0 0.0
2017-Nov-11 00:30N 40°36' W 074°12'0 0.0
2017-Nov-11 00:00N 40°36' W 074°12'0 0.0
2017-Nov-10 23:25N 40°36' W 074°12'1 1.0
2017-Nov-10 22:47N 40°35' W 074°13'0 0.1
2017-Nov-10 22:24N 40°35' W 074°13'1 1.5
2017-Nov-10 21:59N 40°36' W 074°12'0 0.0
2017-Nov-10 21:29N 40°36' W 074°12'0 0.0
2017-Nov-10 20:49N 40°36' W 074°12'0 0.0
2017-Nov-10 20:28N 40°36' W 074°12'0 0.0
2017-Nov-10 19:58N 40°36' W 074°12'0 0.0
2017-Nov-10 19:30N 40°36' W 074°12'1 2.9
2017-Nov-10 19:00N 40°37' W 074°12'3 6.4
2017-Nov-10 18:30N 40°39' W 074°08'2 4.7
2017-Nov-10 18:00N 40°39' W 074°05'0 0.2
2017-Nov-10 17:30N 40°39' W 074°05'1 2.5
2017-Nov-10 17:00N 40°39' W 074°04'2 3.6
2017-Nov-10 16:30N 40°37' W 074°03'1 1.0
2017-Nov-10 16:00N 40°37' W 074°04'0 0.5
2017-Nov-10 15:30N 40°37' W 074°03'2 4.6
2017-Nov-10 15:00N 40°39' W 074°06'2 4.7
2017-Nov-10 14:30N 40°39' W 074°09'3 5.3
2017-Nov-10 14:00N 40°37' W 074°12'2 3.4
2017-Nov-10 13:19N 40°35' W 074°13'0 0.0
2017-Nov-10 12:52N 40°35' W 074°13'1 1.8
2017-Nov-10 12:30N 40°36' W 074°12'0 0.0
2017-Nov-10 12:00N 40°36' W 074°12'0 0.0
2017-Nov-10 11:30N 40°36' W 074°12'0 0.0
2017-Nov-10 11:00N 40°36' W 074°12'0 0.0
2017-Nov-10 10:30N 40°36' W 074°12'0 0.0
2017-Nov-10 10:00N 40°36' W 074°12'0 0.0
2017-Nov-10 09:30N 40°36' W 074°12'0 0.0
2017-Nov-10 08:49N 40°36' W 074°12'0 0.0
2017-Nov-10 08:28N 40°36' W 074°12'0 0.0
2017-Nov-10 07:52N 40°36' W 074°12'2 5.1
2017-Nov-10 07:30N 40°38' W 074°12'3 6.9
2017-Nov-10 07:00N 40°39' W 074°08'1 0.2
2017-Nov-10 04:15N 40°39' W 074°07'0 0.0
2017-Nov-10 04:00N 40°39' W 074°07'0 0.0
2017-Nov-10 03:30N 40°39' W 074°07'0 0.0
2017-Nov-10 02:59N 40°39' W 074°07'0 0.0
2017-Nov-10 02:30N 40°39' W 074°07'0 0.0
2017-Nov-10 02:00N 40°39' W 074°07'0 0.6
2017-Nov-10 01:30N 40°39' W 074°07'4 7.7
2017-Nov-10 01:00N 40°37' W 074°12'2 4.4
2017-Nov-10 00:30N 40°35' W 074°13'  

Dump ship's entire track history